createdAt,value
2022-08-05T00:01:36.412Z,63.12
2022-08-05T00:04:38.213Z,63.36
2022-08-05T00:08:01.010Z,63.87
2022-08-05T00:10:36.191Z,63.95
2022-08-05T00:13:18.563Z,64.18
2022-08-05T00:16:08.515Z,64.36
2022-08-05T00:18:51.378Z,64.32
2022-08-05T00:21:42.707Z,64.27
2022-08-05T00:24:30.974Z,64.30
2022-08-05T00:27:19.159Z,64.52
2022-08-05T00:30:03.155Z,64.43
2022-08-05T00:32:51.146Z,64.15
2022-08-05T00:35:33.407Z,64.54
2022-08-05T00:38:33.763Z,64.32
2022-08-05T00:41:22.127Z,64.44
2022-08-05T00:44:13.510Z,64.28
2022-08-05T00:47:02.110Z,64.36
2022-08-05T00:49:52.781Z,64.67
2022-08-05T00:52:34.117Z,64.56
2022-08-05T00:55:22.269Z,64.73
2022-08-05T00:58:11.306Z,64.52
2022-08-05T01:00:52.868Z,64.49
2022-08-05T01:03:41.164Z,64.72
2022-08-05T01:06:32.581Z,64.40
2022-08-05T01:09:14.117Z,64.52
2022-08-05T01:12:09.282Z,63.97
2022-08-05T01:15:05.351Z,64.31
2022-08-05T01:17:53.776Z,64.27
2022-08-05T01:20:55.083Z,64.35
2022-08-05T01:23:55.147Z,63.92
2022-08-05T01:26:50.225Z,63.81
2022-08-05T01:29:46.068Z,63.49
2022-08-05T01:32:40.058Z,63.31
2022-08-05T01:35:51.540Z,63.45
2022-08-05T01:38:51.052Z,62.67
2022-08-05T01:41:44.458Z,62.50
2022-08-05T01:44:34.449Z,62.25
2022-08-05T01:47:38.881Z,61.87
2022-08-05T01:50:32.305Z,62.37
2022-08-05T01:53:18.030Z,62.27
2022-08-05T01:58:10.723Z,62.17
2022-08-05T01:59:31.030Z,62.87
2022-08-05T02:02:28.471Z,62.84
2022-08-05T02:05:14.222Z,62.76
2022-08-05T02:08:04.011Z,62.77
2022-08-05T02:10:59.201Z,63.07
2022-08-05T02:13:53.295Z,63.26
2022-08-05T02:16:47.072Z,63.21
2022-08-05T02:19:41.352Z,63.51
2022-08-05T02:22:39.012Z,63.64
2022-08-05T02:25:27.229Z,63.68
2022-08-05T02:28:28.974Z,63.74
2022-08-05T02:31:15.150Z,64.00
2022-08-05T02:34:06.994Z,64.00
2022-08-05T02:36:57.149Z,64.11
2022-08-05T02:39:51.567Z,64.09
2022-08-05T02:42:36.166Z,64.01
2022-08-05T02:45:25.961Z,63.91
2022-08-05T02:48:12.486Z,64.13
2022-08-05T02:51:01.952Z,64.00
2022-08-05T02:53:47.376Z,63.98
2022-08-05T02:56:46.044Z,64.04
2022-08-05T02:59:47.860Z,64.40
2022-08-05T03:02:43.205Z,64.20
2022-08-05T03:06:54.112Z,64.37
2022-08-05T03:08:30.000Z,64.58
2022-08-05T03:11:54.671Z,64.52
2022-08-05T03:14:21.153Z,64.66
2022-08-05T03:17:09.231Z,64.67
2022-08-05T03:19:58.521Z,64.37
2022-08-05T03:22:44.018Z,64.92
2022-08-05T03:26:04.321Z,65.02
2022-08-05T03:28:37.948Z,64.90
2022-08-05T03:31:57.417Z,65.01
2022-08-05T03:34:36.873Z,65.01
2022-08-05T03:37:26.449Z,65.16
2022-08-05T03:40:12.103Z,65.11
2022-08-05T03:43:01.355Z,65.06
2022-08-05T03:45:59.054Z,64.97
2022-08-05T03:48:54.853Z,64.96
2022-08-05T03:52:38.732Z,65.07
2022-08-05T03:56:01.492Z,65.07
2022-08-05T03:58:04.936Z,65.05
2022-08-05T04:00:51.372Z,65.32
2022-08-05T04:04:10.155Z,65.31
2022-08-05T04:06:51.149Z,65.48
2022-08-05T04:09:53.828Z,65.06
2022-08-05T04:15:33.207Z,65.73
2022-08-05T04:18:22.505Z,65.65
2022-08-05T04:21:06.806Z,65.44
2022-08-05T04:24:05.931Z,65.58
2022-08-05T04:26:48.077Z,65.62
2022-08-05T04:29:35.927Z,65.53
2022-08-05T04:32:19.985Z,65.92
2022-08-05T04:35:19.777Z,66.02
2022-08-05T04:38:06.837Z,66.06
2022-08-05T04:40:56.783Z,65.88
2022-08-05T04:43:48.245Z,66.18
2022-08-05T04:46:40.775Z,66.18
2022-08-05T04:50:01.917Z,66.20
2022-08-05T04:52:49.760Z,66.46
2022-08-05T04:56:15.168Z,66.39
2022-08-05T04:58:40.742Z,66.73
2022-08-05T05:02:06.022Z,66.45
2022-08-05T05:04:30.082Z,66.55
2022-08-05T05:07:18.745Z,66.54
2022-08-05T05:10:09.989Z,66.64
2022-08-05T05:12:57.816Z,66.42
2022-08-05T05:15:59.345Z,66.82
2022-08-05T05:19:09.210Z,67.13
2022-08-05T05:21:50.926Z,66.80
2022-08-05T05:24:59.014Z,66.53
2022-08-05T05:27:48.659Z,66.84
2022-08-05T05:30:43.793Z,66.63
2022-08-05T05:33:31.370Z,66.49
2022-08-05T05:36:38.712Z,66.56
2022-08-05T05:39:20.011Z,66.52
2022-08-05T05:42:07.696Z,66.58
2022-08-05T05:44:59.518Z,66.39
2022-08-05T05:48:05.518Z,66.45
2022-08-05T05:50:51.750Z,66.24
2022-08-05T05:53:54.597Z,65.90
2022-08-05T05:56:42.840Z,65.98
2022-08-05T05:59:31.302Z,65.67
2022-08-05T06:02:31.007Z,65.42
2022-08-05T06:05:23.907Z,61.76
2022-08-05T06:08:04.650Z,60.03
2022-08-05T06:10:49.140Z,59.65
2022-08-05T06:13:50.528Z,58.72
2022-08-05T06:16:42.030Z,56.59
2022-08-05T06:19:34.184Z,54.32
2022-08-05T06:22:33.573Z,51.73
2022-08-05T06:25:59.062Z,50.24
2022-08-05T06:28:30.812Z,46.65
2022-08-05T06:31:17.944Z,46.04
2022-08-05T06:34:09.618Z,44.93
2022-08-05T06:36:58.022Z,46.44
2022-08-05T06:39:48.691Z,47.51
2022-08-05T06:42:30.825Z,48.85
2022-08-05T06:45:20.778Z,48.87
2022-08-05T06:48:44.083Z,48.86
2022-08-05T06:51:23.783Z,49.29
2022-08-05T06:54:18.174Z,47.75
2022-08-05T06:57:56.777Z,44.87
2022-08-05T07:00:22.484Z,43.35
2022-08-05T07:03:12.841Z,40.54
2022-08-05T07:05:53.596Z,39.49
2022-08-05T07:08:47.628Z,38.01
2022-08-05T07:11:31.017Z,39.04
2022-08-05T07:14:37.603Z,37.96
2022-08-05T07:18:00.692Z,38.28
2022-08-05T07:20:37.077Z,37.25
2022-08-05T07:23:29.718Z,37.45
2022-08-05T07:26:22.556Z,36.86
2022-08-05T07:29:03.800Z,37.17
2022-08-05T07:31:54.875Z,36.88
2022-08-05T07:34:42.038Z,36.12
2022-08-05T07:37:37.729Z,35.49
2022-08-05T07:40:32.647Z,35.28
2022-08-05T07:43:20.427Z,34.85
2022-08-05T07:46:02.352Z,34.99
2022-08-05T07:49:05.015Z,34.91
2022-08-05T07:51:55.280Z,34.88
2022-08-05T07:54:38.623Z,34.57
2022-08-05T07:57:41.837Z,34.76
2022-08-05T08:00:30.753Z,34.01
2022-08-05T08:03:21.636Z,33.82
2022-08-05T08:06:04.729Z,33.42
2022-08-05T08:08:53.525Z,32.60
2022-08-05T08:11:47.451Z,32.71
2022-08-05T08:14:38.477Z,32.47
2022-08-05T08:17:29.494Z,32.46
2022-08-05T08:20:43.507Z,32.76
2022-08-05T08:24:03.904Z,31.96
2022-08-05T08:26:29.779Z,31.90
2022-08-05T08:29:29.579Z,31.18
2022-08-05T08:32:25.742Z,31.95
2022-08-05T08:35:13.578Z,32.12
2022-08-05T08:38:08.488Z,32.17
2022-08-05T08:40:55.210Z,32.47
2022-08-05T08:45:17.202Z,33.06
2022-08-05T08:46:45.969Z,32.50
2022-08-05T08:50:06.103Z,32.71
2022-08-05T08:52:47.269Z,32.22
2022-08-05T08:56:02.848Z,32.53
2022-08-05T08:58:48.652Z,33.45
2022-08-05T09:01:30.683Z,33.79
2022-08-05T09:04:21.421Z,33.81
2022-08-05T09:07:19.610Z,33.84
2022-08-05T09:10:18.431Z,33.41
2022-08-05T09:13:04.781Z,35.09
2022-08-05T09:15:55.441Z,35.56
2022-08-05T09:18:42.632Z,35.93
2022-08-05T09:22:22.000Z,34.58
2022-08-05T09:24:36.403Z,35.73
2022-08-05T09:27:18.734Z,35.48
2022-08-05T09:30:25.496Z,36.46
2022-08-05T09:33:10.605Z,37.48
2022-08-05T09:36:16.167Z,37.49
2022-08-05T09:39:18.232Z,37.08
2022-08-05T09:42:23.436Z,36.60
2022-08-05T09:46:04.932Z,36.63
2022-08-05T09:48:35.391Z,37.36
2022-08-05T09:51:23.646Z,37.32
2022-08-05T09:54:05.347Z,37.14
2022-08-05T09:56:52.352Z,37.31
2022-08-05T09:59:40.383Z,37.07
2022-08-05T10:02:33.384Z,37.03
2022-08-05T10:05:26.832Z,38.03
2022-08-05T10:08:35.289Z,37.27
2022-08-05T10:11:18.470Z,38.79
2022-08-05T10:14:06.569Z,38.55
2022-08-05T10:16:52.977Z,39.82
2022-08-05T10:20:04.338Z,39.26
2022-08-05T10:22:50.698Z,40.14
2022-08-05T10:25:39.628Z,39.98
2022-08-05T10:28:29.071Z,40.22
2022-08-05T10:32:49.685Z,39.86
2022-08-05T10:34:25.919Z,39.84
2022-08-05T10:37:27.311Z,39.22
2022-08-05T10:40:37.478Z,40.34
2022-08-05T10:43:35.882Z,40.14
2022-08-05T10:46:26.298Z,39.78
2022-08-05T10:49:26.756Z,40.30
2022-08-05T10:52:22.363Z,38.70
2022-08-05T10:55:07.368Z,40.10
2022-08-05T10:57:57.274Z,41.37
2022-08-05T11:00:42.133Z,41.26
2022-08-05T11:03:31.370Z,42.17
2022-08-05T11:06:21.519Z,41.82
2022-08-05T11:09:39.174Z,41.07
2022-08-05T11:12:55.673Z,41.94
2022-08-05T11:15:59.173Z,42.37
2022-08-05T11:18:48.357Z,41.62
2022-08-05T11:21:48.680Z,39.61
2022-08-05T11:24:38.829Z,40.21
2022-08-05T11:27:51.215Z,39.81
2022-08-05T11:31:54.115Z,39.44
2022-08-05T11:34:51.526Z,39.71
2022-08-05T11:38:30.691Z,39.25
2022-08-05T11:41:58.231Z,38.33
2022-08-05T11:44:40.517Z,39.30
2022-08-05T11:47:48.932Z,38.12
2022-08-05T11:50:33.194Z,36.71
2022-08-05T11:53:15.472Z,38.25
2022-08-05T11:56:04.307Z,35.66
2022-08-05T11:58:52.798Z,37.43
2022-08-05T12:01:41.404Z,36.71
2022-08-05T12:04:29.170Z,38.23
2022-08-05T12:08:10.192Z,38.86
2022-08-05T12:10:38.465Z,39.05
2022-08-05T12:13:47.650Z,38.55
2022-08-05T12:16:32.404Z,39.04
2022-08-05T12:20:17.114Z,37.76
2022-08-05T12:22:25.422Z,38.19
2022-08-05T12:25:16.538Z,38.47
2022-08-05T12:27:57.400Z,38.86
2022-08-05T12:30:50.158Z,39.50
2022-08-05T12:33:36.634Z,39.41
2022-08-05T12:36:26.175Z,38.71
2022-08-05T12:39:09.434Z,38.12
2022-08-05T12:41:58.262Z,38.04
2022-08-05T12:44:39.454Z,39.01
2022-08-05T12:47:36.153Z,39.07
2022-08-05T12:50:25.325Z,38.34
2022-08-05T12:53:07.121Z,38.70
2022-08-05T12:55:57.350Z,37.83
2022-08-05T12:58:52.284Z,38.08
2022-08-05T13:02:01.666Z,37.72
2022-08-05T13:04:54.284Z,38.05
2022-08-05T13:07:59.751Z,37.96
2022-08-05T13:10:59.101Z,38.28
2022-08-05T13:14:04.637Z,38.53
2022-08-05T13:16:56.582Z,38.24
2022-08-05T13:19:51.760Z,38.15
2022-08-05T13:22:35.297Z,37.07
2022-08-05T13:25:51.982Z,37.65
2022-08-05T13:28:34.063Z,36.77
2022-08-05T13:32:03.938Z,37.06
2022-08-05T13:34:41.843Z,38.14
2022-08-05T13:37:34.432Z,37.89
2022-08-05T13:40:36.850Z,38.01
2022-08-05T13:43:44.396Z,38.18
2022-08-05T13:46:43.825Z,38.08
2022-08-05T13:49:37.053Z,39.18
2022-08-05T13:52:41.215Z,38.71
2022-08-05T13:55:41.692Z,38.27
2022-08-05T13:58:31.215Z,39.14
2022-08-05T14:01:19.024Z,38.94
2022-08-05T14:04:26.742Z,39.67
2022-08-05T14:07:56.414Z,39.69
2022-08-05T14:10:28.174Z,39.30
2022-08-05T14:13:18.000Z,39.01
2022-08-05T14:16:04.768Z,39.84
2022-08-05T14:18:57.073Z,40.27
2022-08-05T14:22:09.688Z,39.48
2022-08-05T14:24:47.994Z,39.13
2022-08-05T14:27:31.259Z,38.43
2022-08-05T14:30:20.790Z,38.43
2022-08-05T14:33:09.173Z,39.33
2022-08-05T14:36:04.001Z,39.17
2022-08-05T14:38:47.193Z,38.34
2022-08-05T14:41:36.048Z,39.01
2022-08-05T14:44:20.346Z,39.34
2022-08-05T14:47:09.960Z,38.65
2022-08-05T14:49:59.827Z,38.92
2022-08-05T14:52:53.493Z,38.13
2022-08-05T14:55:40.310Z,38.43
2022-08-05T14:58:27.963Z,38.04
2022-08-05T15:01:15.578Z,38.34
2022-08-05T15:04:05.353Z,38.14
2022-08-05T15:06:49.406Z,37.64
2022-08-05T15:09:52.026Z,37.94
2022-08-05T15:13:00.239Z,36.90
2022-08-05T15:15:55.747Z,38.86
2022-08-05T15:18:43.921Z,39.21
2022-08-05T15:21:35.330Z,37.94
2022-08-05T15:24:16.907Z,38.24
2022-08-05T15:27:05.240Z,39.17
2022-08-05T15:29:51.907Z,38.63
2022-08-05T15:32:41.905Z,38.40
2022-08-05T15:35:23.136Z,38.75
2022-08-05T15:38:47.856Z,39.17
2022-08-05T15:41:24.432Z,40.45
2022-08-05T15:44:13.206Z,40.75
2022-08-05T15:46:55.953Z,41.10
2022-08-05T15:49:56.682Z,39.96
2022-08-05T15:52:54.415Z,39.79
2022-08-05T15:56:02.090Z,40.43
2022-08-05T15:58:44.905Z,41.10
2022-08-05T16:01:29.474Z,40.46
2022-08-05T16:04:28.883Z,40.79
2022-08-05T16:07:11.087Z,40.37
2022-08-05T16:09:59.915Z,41.15
2022-08-05T16:12:48.870Z,40.83
2022-08-05T16:15:43.855Z,40.87
2022-08-05T16:18:33.195Z,41.05
2022-08-05T16:21:16.079Z,41.32
2022-08-05T16:24:04.834Z,41.62
2022-08-05T16:27:07.277Z,41.63
2022-08-05T16:29:50.226Z,42.09
2022-08-05T16:32:38.846Z,41.66
2022-08-05T16:35:28.433Z,42.11
2022-08-05T16:38:25.173Z,42.21
2022-08-05T16:41:21.644Z,42.51
2022-08-05T16:44:17.804Z,43.10
2022-08-05T16:47:06.159Z,43.00
2022-08-05T16:50:21.802Z,43.72
2022-08-05T16:56:05.034Z,44.13
2022-08-05T16:58:55.786Z,43.92
2022-08-05T17:01:54.950Z,43.75
2022-08-05T17:04:44.782Z,43.94
2022-08-05T17:07:38.888Z,43.88
2022-08-05T17:10:30.665Z,44.10
2022-08-05T17:13:16.638Z,44.18
2022-08-05T17:16:26.725Z,45.32
2022-08-05T17:19:12.762Z,45.62
2022-08-05T17:22:01.041Z,46.10
2022-08-05T17:24:46.431Z,46.07
2022-08-05T17:27:44.746Z,46.11
2022-08-05T17:30:29.094Z,46.31
2022-08-05T17:33:17.939Z,46.12
2022-08-05T17:36:08.081Z,46.45
2022-08-05T17:38:57.770Z,46.87
2022-08-05T17:42:17.768Z,47.52
2022-08-05T17:44:50.167Z,47.31
2022-08-05T17:47:39.945Z,47.28
2022-08-05T17:50:27.697Z,47.50
2022-08-05T17:53:28.005Z,46.88
2022-08-05T17:56:18.054Z,47.13
2022-08-05T17:58:58.773Z,49.48
2022-08-05T18:01:49.213Z,50.41
2022-08-05T18:04:50.999Z,50.74
2022-08-05T18:07:42.445Z,50.88
2022-08-05T18:10:24.703Z,50.67
2022-08-05T18:13:13.922Z,51.10
2022-08-05T18:15:54.708Z,51.61
2022-08-05T18:18:48.078Z,51.69
2022-08-05T18:22:08.226Z,51.39
2022-08-05T18:24:40.903Z,51.24
2022-08-05T18:27:21.670Z,51.54
2022-08-05T18:30:10.673Z,51.41
2022-08-05T18:33:00.295Z,51.71
2022-08-05T18:36:03.804Z,51.70
2022-08-05T18:38:49.868Z,51.42
2022-08-05T18:41:58.535Z,51.56
2022-08-05T18:44:49.229Z,51.92
2022-08-05T18:47:44.619Z,52.16
2022-08-05T18:50:47.680Z,52.17
2022-08-05T18:53:45.956Z,52.07
2022-08-05T18:56:40.633Z,52.67
2022-08-05T18:59:43.808Z,52.74
2022-08-05T19:02:24.644Z,53.17
2022-08-05T19:06:05.736Z,53.46
2022-08-05T19:08:18.828Z,53.41
2022-08-05T19:11:07.263Z,53.67
2022-08-05T19:13:50.741Z,53.88
2022-08-05T19:16:51.665Z,54.52
2022-08-05T19:19:39.578Z,54.86
2022-08-05T19:22:34.605Z,55.36
2022-08-05T19:25:30.336Z,55.55
2022-08-05T19:28:27.791Z,56.20
2022-08-05T19:31:21.353Z,56.45
2022-08-05T19:34:03.663Z,56.66
2022-08-05T19:36:45.570Z,57.34
2022-08-05T19:39:46.009Z,57.57
2022-08-05T19:42:39.093Z,57.83
2022-08-05T19:45:21.551Z,58.26
2022-08-05T19:48:15.573Z,58.48
2022-08-05T19:51:10.540Z,58.85
2022-08-05T19:54:26.635Z,58.88
2022-08-05T19:57:13.862Z,59.08
2022-08-05T20:00:06.578Z,59.32
2022-08-05T20:02:48.914Z,59.71
2022-08-05T20:05:42.913Z,60.04
2022-08-05T20:08:24.887Z,60.08
2022-08-05T20:11:12.532Z,59.77
2022-08-05T20:14:12.021Z,60.01
2022-08-05T20:17:12.495Z,60.42
2022-08-05T20:20:09.206Z,60.18
2022-08-05T20:22:52.514Z,60.18
2022-08-05T20:25:40.150Z,60.22
2022-08-05T20:28:28.502Z,60.40
2022-08-05T20:31:16.922Z,60.44
2022-08-05T20:34:04.517Z,60.32
2022-08-05T20:36:46.317Z,60.25
2022-08-05T20:39:37.569Z,60.04
2022-08-05T20:42:25.867Z,60.34
2022-08-05T20:45:10.529Z,60.67
2022-08-05T20:47:59.461Z,60.39
2022-08-05T20:50:47.719Z,60.38
2022-08-05T20:53:40.964Z,60.25
2022-08-05T20:56:28.064Z,60.05
2022-08-05T20:59:19.313Z,60.29
2022-08-05T21:02:08.766Z,60.58
2022-08-05T21:04:57.441Z,60.61
2022-08-05T21:07:50.841Z,61.33
2022-08-05T21:10:41.460Z,61.34
2022-08-05T21:13:46.973Z,61.67
2022-08-05T21:16:48.430Z,61.71
2022-08-05T21:19:47.251Z,61.78
2022-08-05T21:22:31.420Z,61.99
2022-08-05T21:25:13.319Z,61.92
2022-08-05T21:28:01.419Z,62.04
2022-08-05T21:30:51.632Z,61.75
2022-08-05T21:33:36.879Z,62.01
2022-08-05T21:36:29.913Z,61.64
2022-08-05T21:39:26.987Z,61.69
2022-08-05T21:42:31.140Z,61.82
2022-08-05T21:45:25.165Z,61.87
2022-08-05T21:48:27.614Z,61.92
2022-08-05T21:52:16.488Z,61.50
2022-08-05T21:54:30.737Z,61.64
2022-08-05T21:57:31.665Z,61.33
2022-08-05T22:00:23.497Z,62.12
2022-08-05T22:03:15.104Z,61.87
2022-08-05T22:05:58.375Z,62.37
2022-08-05T22:08:46.341Z,62.14
2022-08-05T22:11:34.741Z,62.23
2022-08-05T22:14:35.840Z,62.31
2022-08-05T22:17:25.377Z,62.41
2022-08-05T22:20:13.390Z,62.37
2022-08-05T22:23:22.346Z,62.69
2022-08-05T22:26:39.738Z,63.67
2022-08-05T22:29:26.304Z,63.86
2022-08-05T22:32:18.317Z,63.75
2022-08-05T22:35:06.329Z,64.21
2022-08-05T22:37:59.104Z,64.00
2022-08-05T22:40:41.311Z,64.37
2022-08-05T22:43:37.311Z,64.23
2022-08-05T22:46:23.564Z,64.27
2022-08-05T22:50:17.549Z,64.25
2022-08-05T22:52:32.619Z,64.44
2022-08-05T22:55:24.483Z,64.82
2022-08-05T22:58:07.281Z,65.06
2022-08-05T23:00:59.488Z,64.80
2022-08-05T23:03:58.896Z,65.29
2022-08-05T23:06:47.826Z,65.25
2022-08-05T23:09:57.494Z,65.19
2022-08-05T23:12:39.284Z,65.34
2022-08-05T23:15:20.454Z,65.49
2022-08-05T23:18:11.731Z,65.84
2022-08-05T23:20:57.457Z,65.83
2022-08-05T23:23:46.257Z,66.01
2022-08-05T23:26:27.490Z,65.95
2022-08-05T23:29:17.269Z,66.03
2022-08-05T23:32:07.230Z,66.14
2022-08-05T23:34:58.382Z,66.26
2022-08-05T23:37:40.458Z,66.21
2022-08-05T23:40:32.262Z,66.46
2022-08-05T23:43:25.799Z,66.36
2022-08-05T23:46:25.205Z,66.35
2022-08-05T23:49:16.074Z,66.27
2022-08-05T23:52:28.294Z,66.48
2022-08-05T23:55:18.263Z,66.61
2022-08-05T23:58:06.181Z,66.85
